Time;durP1;ratioP1;P1;durP2;ratioP2;P2;SDS_P1;SDS_P2;PMS_P1;PMS_P2;Temp;Humidity;BMP_temperature;BMP_pressure;BME280_temperature;BME280_humidity;BME280_pressure;Samples;Min_cycle;Max_cycle;Signal;HPM_P1;HPM_P2
2023/09/20 00:00:57;;;;;;;6.20;2.40;;;17.70;99.90;;;;;;5070283;28;20054;-72
2023/09/20 00:03:25;;;;;;;7.88;2.78;;;17.70;99.90;;;;;;5070170;28;20111;-72
2023/09/20 00:05:51;;;;;;;6.53;2.20;;;17.70;99.90;;;;;;5069293;28;20055;-72
2023/09/20 00:08:17;;;;;;;6.15;2.50;;;17.70;99.90;;;;;;5069663;28;20417;-73
2023/09/20 00:10:45;;;;;;;11.95;2.92;;;17.70;99.90;;;;;;5069843;28;20070;-73
2023/09/20 00:13:11;;;;;;;7.22;2.40;;;17.70;99.90;;;;;;5070214;28;20522;-72
2023/09/20 00:15:39;;;;;;;7.05;2.47;;;17.70;99.90;;;;;;5069697;28;20031;-72
2023/09/20 00:18:04;;;;;;;8.45;2.78;;;17.80;99.90;;;;;;5057127;28;20080;-73
2023/09/20 00:20:30;;;;;;;6.88;2.33;;;17.80;99.90;;;;;;5056597;28;20524;-72
2023/09/20 00:22:55;;;;;;;6.68;2.75;;;17.80;99.90;;;;;;5055633;28;20024;-73
2023/09/20 00:25:21;;;;;;;7.18;2.50;;;17.80;99.90;;;;;;5056617;28;20131;-72
2023/09/20 00:27:47;;;;;;;10.13;2.85;;;17.80;99.90;;;;;;5056729;28;20013;-72
2023/09/20 00:30:17;;;;;;;11.60;3.42;;;17.80;99.90;;;;;;5056467;28;20032;-72
2023/09/20 00:32:43;;;;;;;7.78;2.92;;;17.90;99.90;;;;;;5056408;28;20104;-72
2023/09/20 00:35:10;;;;;;;8.05;3.10;;;17.80;99.90;;;;;;5056040;28;20490;-72
2023/09/20 00:37:38;;;;;;;9.90;2.50;;;17.80;99.90;;;;;;5056071;28;20116;-73
2023/09/20 00:40:04;;;;;;;14.15;3.30;;;17.80;99.90;;;;;;5056278;28;20036;-72
2023/09/20 00:42:31;;;;;;;6.68;2.75;;;17.80;99.90;;;;;;5055805;28;20128;-72
2023/09/20 00:44:58;;;;;;;6.80;2.55;;;17.70;1.00;;;;;;5035810;28;20026;-72
2023/09/20 00:47:26;;;;;;;9.80;3.00;;;17.70;99.90;;;;;;5035832;28;20434;-73
2023/09/20 00:49:52;;;;;;;10.45;2.97;;;17.70;1.00;;;;;;5036031;28;20456;-72
2023/09/20 00:52:18;;;;;;;10.43;2.95;;;17.70;1.00;;;;;;5035437;28;20032;-72
2023/09/20 00:54:44;;;;;;;6.15;2.50;;;17.70;1.00;;;;;;5035754;28;20061;-72
2023/09/20 00:57:09;;;;;;;7.75;2.83;;;17.60;1.00;;;;;;5036033;28;20045;-73
2023/09/20 00:59:38;;;;;;;8.40;3.00;;;17.60;1.00;;;;;;5035719;28;20036;-72
2023/09/20 01:02:05;;;;;;;8.30;2.90;;;17.60;1.00;;;;;;5035505;28;20029;-72
2023/09/20 01:04:34;;;;;;;7.95;2.80;;;17.60;1.00;;;;;;5035777;28;20037;-73
2023/09/20 01:07:00;;;;;;;5.93;2.70;;;17.60;1.00;;;;;;5036138;28;20116;-72
2023/09/20 01:09:26;;;;;;;5.85;2.53;;;17.50;1.00;;;;;;5035392;28;20228;-72
2023/09/20 01:11:51;;;;;;;7.65;2.47;;;17.50;1.00;;;;;;5035707;28;20379;-72
2023/09/20 01:14:19;;;;;;;11.68;2.85;;;17.60;1.00;;;;;;5036055;28;20032;-73
2023/09/20 01:16:45;;;;;;;8.68;2.83;;;17.60;1.00;;;;;;5035250;28;20025;-72
2023/09/20 01:19:10;;;;;;;5.55;2.58;;;17.60;1.00;;;;;;5035309;28;20108;-72
2023/09/20 01:21:41;;;;;;;6.78;3.00;;;17.60;1.00;;;;;;5035770;28;20055;-72
2023/09/20 01:24:08;;;;;;;8.13;2.63;;;17.70;1.00;;;;;;5035163;28;20021;-73
2023/09/20 01:26:36;;;;;;;8.82;3.25;;;17.60;1.00;;;;;;5035155;28;20135;-73
2023/09/20 01:29:01;;;;;;;7.32;2.53;;;17.60;1.00;;;;;;5034693;28;20517;-73
2023/09/20 01:31:27;;;;;;;6.07;2.78;;;17.60;1.00;;;;;;5035380;28;20025;-72
2023/09/20 01:33:52;;;;;;;5.10;2.20;;;17.60;1.00;;;;;;5035011;28;20025;-72
2023/09/20 01:36:18;;;;;;;6.82;2.50;;;17.60;1.00;;;;;;5035271;28;20025;-72
2023/09/20 01:38:43;;;;;;;8.45;2.58;;;17.60;1.00;;;;;;5035209;28;20426;-72
2023/09/20 01:41:09;;;;;;;7.25;2.90;;;17.50;1.00;;;;;;5034896;28;20108;-72
2023/09/20 01:43:36;;;;;;;7.72;3.00;;;17.60;1.00;;;;;;5035473;28;20026;-72
2023/09/20 01:46:03;;;;;;;9.55;3.30;;;17.60;1.00;;;;;;5035164;28;20032;-73
2023/09/20 01:48:28;;;;;;;8.85;2.88;;;17.60;1.00;;;;;;5034419;28;20032;-73
2023/09/20 01:50:54;;;;;;;9.40;2.72;;;17.60;1.00;;;;;;5034033;28;20021;-73
2023/09/20 01:53:19;;;;;;;9.15;2.80;;;17.60;1.00;;;;;;5034838;28;20116;-72
2023/09/20 01:55:45;;;;;;;6.60;2.53;;;17.70;1.00;;;;;;5035099;28;20033;-72
2023/09/20 01:58:14;;;;;;;6.88;2.72;;;17.70;1.00;;;;;;5034606;28;20025;-72
2023/09/20 02:00:40;;;;;;;7.15;2.65;;;17.70;1.00;;;;;;5034218;28;20029;-73
2023/09/20 02:03:13;;;;;;;4.28;2.50;;;17.70;1.00;;;;;;5034813;28;20079;-72
2023/09/20 02:05:39;;;;;;;5.75;2.72;;;17.80;1.00;;;;;;5033819;28;20061;-73
2023/09/20 02:08:06;;;;;;;9.07;2.75;;;17.80;1.00;;;;;;5034535;28;20079;-72
2023/09/20 02:10:32;;;;;;;10.15;2.90;;;17.80;1.00;;;;;;5034658;28;20468;-73
2023/09/20 02:12:59;;;;;;;8.88;2.65;;;17.70;1.00;;;;;;5034907;28;20057;-72
2023/09/20 02:15:27;;;;;;;7.68;2.75;;;17.70;1.00;;;;;;5034527;28;20036;-73
2023/09/20 02:17:53;;;;;;;7.00;2.42;;;17.70;1.00;;;;;;5034745;28;20463;-73
2023/09/20 02:20:23;;;;;;;6.72;2.90;;;17.60;1.00;;;;;;5034777;28;20061;-73
2023/09/20 02:22:50;;;;;;;8.52;2.95;;;17.50;1.00;;;;;;5034349;28;20049;-72
2023/09/20 02:25:20;;;;;;;9.68;2.53;;;17.50;1.00;;;;;;5034523;28;20021;-72
2023/09/20 02:27:47;;;;;;;7.97;2.80;;;17.50;1.00;;;;;;5034058;28;20037;-72
2023/09/20 02:30:16;;;;;;;6.32;2.63;;;17.40;1.00;;;;;;5034005;28;20084;-72
2023/09/20 02:32:43;;;;;;;9.35;3.17;;;17.40;1.00;;;;;;5034626;28;20075;-72
2023/09/20 02:35:09;;;;;;;11.38;2.63;;;17.40;1.00;;;;;;5034004;28;20037;-72
2023/09/20 02:37:35;;;;;;;9.27;2.70;;;17.30;1.00;;;;;;5033807;28;20029;-72
2023/09/20 02:40:07;;;;;;;7.05;3.05;;;17.40;1.00;;;;;;5033925;28;20032;-72
2023/09/20 02:42:40;;;;;;;5.72;2.67;;;17.20;1.00;;;;;;5033713;28;20029;-72
2023/09/20 02:45:07;;;;;;;6.20;2.80;;;17.20;1.00;;;;;;5034336;28;20075;-72
2023/09/20 02:47:32;;;;;;;4.50;2.58;;;17.10;1.00;;;;;;5034128;28;20493;-72
2023/09/20 02:49:58;;;;;;;6.22;2.75;;;17.10;1.00;;;;;;5034349;28;20108;-73
2023/09/20 02:52:23;;;;;;;8.68;3.08;;;17.10;1.00;;;;;;5033960;28;20034;-72
2023/09/20 02:54:51;;;;;;;10.00;3.30;;;17.10;1.00;;;;;;5033950;28;20395;-72
2023/09/20 02:57:17;;;;;;;7.97;2.97;;;17.00;1.00;;;;;;5033568;28;20017;-72
2023/09/20 02:59:42;;;;;;;8.23;3.20;;;17.00;1.00;;;;;;5033953;28;20029;-72
2023/09/20 03:02:10;;;;;;;10.23;2.90;;;17.00;1.00;;;;;;5034163;28;20036;-72
2023/09/20 03:04:37;;;;;;;9.15;3.03;;;17.00;1.00;;;;;;5033372;28;20422;-72
2023/09/20 03:07:04;;;;;;;7.25;3.17;;;17.00;1.00;;;;;;5033375;28;20451;-72
2023/09/20 03:09:35;;;;;;;6.60;3.08;;;16.90;1.00;;;;;;5034036;28;20072;-72
2023/09/20 03:12:03;;;;;;;8.15;2.92;;;16.90;1.00;;;;;;5033494;28;20559;-72
2023/09/20 03:14:29;;;;;;;6.25;2.65;;;16.90;1.00;;;;;;5033496;28;20426;-72
2023/09/20 03:16:55;;;;;;;9.02;3.38;;;16.90;1.00;;;;;;5033656;28;20483;-72
2023/09/20 03:19:22;;;;;;;7.75;3.03;;;16.80;1.00;;;;;;5033729;28;20026;-72
2023/09/20 03:21:47;;;;;;;6.82;3.08;;;16.80;1.00;;;;;;5033948;28;20021;-72
2023/09/20 03:24:13;;;;;;;10.90;3.33;;;16.80;1.00;;;;;;5033561;28;20021;-72
2023/09/20 03:26:39;;;;;;;12.95;3.35;;;16.80;1.00;;;;;;5033718;28;20088;-72
2023/09/20 03:29:04;;;;;;;8.93;2.97;;;16.80;1.00;;;;;;5033127;28;20029;-72
2023/09/20 03:31:31;;;;;;;13.40;3.00;;;16.80;1.00;;;;;;5033679;28;20022;-72
2023/09/20 03:33:59;;;;;;;5.68;2.72;;;16.80;1.00;;;;;;5033920;28;20360;-72
2023/09/20 03:36:25;;;;;;;7.47;2.95;;;16.70;5.90;;;;;;5033242;28;20030;-72
2023/09/20 03:38:51;;;;;;;7.30;2.95;;;16.70;5.20;;;;;;5033888;28;20034;-72
2023/09/20 03:41:17;;;;;;;7.80;2.85;;;16.70;1.00;;;;;;5033229;28;20091;-72
2023/09/20 03:43:45;;;;;;;9.05;3.00;;;16.80;1.00;;;;;;5033752;28;20037;-72
2023/09/20 03:46:11;;;;;;;10.30;3.28;;;16.70;1.00;;;;;;5032933;28;20030;-72
2023/09/20 03:48:36;;;;;;;7.10;3.00;;;16.70;1.90;;;;;;5033482;28;20152;-72
2023/09/20 03:51:04;;;;;;;8.27;3.20;;;16.70;4.60;;;;;;5033494;28;20065;-72
2023/09/20 03:53:30;;;;;;;9.25;3.80;;;16.70;5.00;;;;;;5037198;28;20030;-72
2023/09/20 03:55:55;;;;;;;11.68;3.72;;;16.60;8.60;;;;;;5037232;28;20086;-72
2023/09/20 03:58:21;;;;;;;5.20;2.35;;;16.60;13.40;;;;;;5036698;28;20100;-72
2023/09/20 04:00:47;;;;;;;6.63;2.70;;;16.60;15.30;;;;;;5037441;28;20034;-72
2023/09/20 04:03:13;;;;;;;6.18;2.90;;;16.60;13.00;;;;;;5036830;28;20371;-72
2023/09/20 04:05:39;;;;;;;12.32;3.20;;;16.60;14.50;;;;;;5036296;28;20041;-72
2023/09/20 04:08:06;;;;;;;9.40;3.08;;;16.60;13.70;;;;;;5037182;28;20040;-72
2023/09/20 04:10:33;;;;;;;9.95;3.50;;;16.60;20.50;;;;;;5036734;28;20113;-72
2023/09/20 04:12:59;;;;;;;10.10;3.15;;;16.60;18.50;;;;;;5036582;28;20418;-72
2023/09/20 04:15:25;;;;;;;9.05;2.70;;;16.70;16.40;;;;;;5036749;28;20033;-72
2023/09/20 04:17:51;;;;;;;5.57;3.20;;;16.70;12.80;;;;;;5037048;28;20064;-72
2023/09/20 04:20:20;;;;;;;8.18;3.30;;;16.70;13.30;;;;;;5036696;28;20522;-72
2023/09/20 04:22:46;;;;;;;7.63;3.10;;;16.60;16.20;;;;;;5036690;28;20025;-72
2023/09/20 04:25:12;;;;;;;8.65;3.10;;;16.60;19.90;;;;;;5036518;28;20029;-72
2023/09/20 04:27:38;;;;;;;9.02;3.25;;;16.60;21.20;;;;;;5036837;28;20402;-72
2023/09/20 04:30:07;;;;;;;9.63;3.20;;;16.60;25.20;;;;;;5036558;28;20032;-72
2023/09/20 04:32:33;;;;;;;9.23;2.90;;;16.60;26.70;;;;;;5036673;28;20045;-72
2023/09/20 04:34:59;;;;;;;7.97;3.40;;;16.60;33.50;;;;;;5035650;28;20033;-72
2023/09/20 04:37:25;;;;;;;9.70;2.80;;;16.50;30.30;;;;;;5035844;28;20029;-72
2023/09/20 04:39:51;;;;;;;5.82;3.20;;;16.60;32.10;;;;;;5036640;28;20072;-72
2023/09/20 04:42:16;;;;;;;11.07;3.42;;;16.60;30.00;;;;;;5036313;28;20033;-72
2023/09/20 04:44:42;;;;;;;7.13;3.35;;;16.60;28.40;;;;;;5036202;28;20036;-73
2023/09/20 04:47:10;;;;;;;7.88;3.50;;;16.60;29.10;;;;;;5035846;28;20531;-72
2023/09/20 04:49:37;;;;;;;12.70;3.10;;;16.50;33.60;;;;;;5036790;28;20030;-73
2023/09/20 04:52:04;;;;;;;9.70;3.35;;;16.50;32.90;;;;;;5035594;28;20365;-72
2023/09/20 04:54:30;;;;;;;8.85;3.53;;;16.50;33.70;;;;;;5035466;28;20045;-72
2023/09/20 04:56:55;;;;;;;8.90;3.67;;;16.50;34.80;;;;;;5035099;28;20037;-72
2023/09/20 04:59:22;;;;;;;8.05;3.38;;;16.50;33.10;;;;;;5035337;28;20033;-72
2023/09/20 05:01:49;;;;;;;8.80;3.53;;;16.60;30.50;;;;;;5035385;28;20044;-72
2023/09/20 05:04:18;;;;;;;10.02;3.20;;;16.60;28.80;;;;;;5036057;28;20033;-72
2023/09/20 05:06:45;;;;;;;11.30;3.40;;;16.60;28.40;;;;;;5034888;28;20099;-72
2023/09/20 05:09:12;;;;;;;8.45;3.00;;;16.60;26.80;;;;;;5036022;28;20523;-72
2023/09/20 05:11:38;;;;;;;9.20;3.65;;;16.60;27.20;;;;;;5036053;28;20021;-72
2023/09/20 05:14:05;;;;;;;14.10;3.42;;;16.60;33.90;;;;;;5035575;28;20517;-72
2023/09/20 05:16:31;;;;;;;7.75;2.97;;;16.50;37.70;;;;;;5035474;28;20037;-72
2023/09/20 05:18:57;;;;;;;7.40;2.97;;;16.50;40.50;;;;;;5035604;28;20426;-72
2023/09/20 05:21:22;;;;;;;10.02;3.17;;;16.50;38.80;;;;;;5035750;28;20108;-72
2023/09/20 05:23:48;;;;;;;11.32;3.45;;;16.60;36.30;;;;;;5035443;28;20036;-72
2023/09/20 05:26:14;;;;;;;9.07;3.35;;;16.60;30.40;;;;;;5035543;28;20021;-72
2023/09/20 05:28:39;;;;;;;9.48;3.03;;;16.60;32.00;;;;;;5035384;28;20032;-72
2023/09/20 05:31:06;;;;;;;10.40;3.30;;;16.60;32.60;;;;;;5035636;28;20052;-72
2023/09/20 05:33:32;;;;;;;8.65;3.25;;;16.60;30.90;;;;;;5035067;28;20383;-72
2023/09/20 05:35:58;;;;;;;10.23;3.03;;;16.60;31.50;;;;;;5035618;28;20021;-72
2023/09/20 05:38:25;;;;;;;8.25;3.17;;;16.70;28.00;;;;;;5035237;28;20092;-72
2023/09/20 05:40:50;;;;;;;10.07;3.35;;;16.70;33.40;;;;;;5035085;28;20025;-72
2023/09/20 05:43:16;;;;;;;8.65;3.33;;;16.70;26.90;;;;;;5034791;28;20045;-72
2023/09/20 05:45:42;;;;;;;9.80;3.05;;;16.70;26.00;;;;;;5035202;28;20061;-72
2023/09/20 05:48:09;;;;;;;6.57;3.22;;;16.70;25.70;;;;;;5034754;28;20033;-72
2023/09/20 05:50:35;;;;;;;9.43;3.50;;;16.80;23.80;;;;;;5035049;28;20353;-73
2023/09/20 05:53:03;;;;;;;12.25;3.53;;;16.80;24.00;;;;;;5034767;28;20045;-72
2023/09/20 05:55:32;;;;;;;7.00;2.90;;;16.90;15.40;;;;;;5034965;28;20033;-72
2023/09/20 05:57:58;;;;;;;9.65;3.75;;;17.00;13.10;;;;;;5034578;28;20040;-72
2023/09/20 06:00:24;;;;;;;9.68;2.95;;;17.00;9.60;;;;;;5033825;28;20029;-73
2023/09/20 06:02:49;;;;;;;7.57;2.97;;;17.00;9.90;;;;;;5023237;28;20516;-72
2023/09/20 06:05:16;;;;;;;10.38;3.33;;;17.10;7.90;;;;;;5029982;28;20042;-73
2023/09/20 06:07:44;;;;;;;6.65;3.00;;;17.10;6.60;;;;;;5034294;28;20167;-73
2023/09/20 06:10:11;;;;;;;7.57;2.78;;;17.20;1.00;;;;;;5029719;28;20091;-73
2023/09/20 06:12:36;;;;;;;11.15;3.30;;;17.30;1.00;;;;;;5033950;28;20051;-73
2023/09/20 06:15:04;;;;;;;6.55;2.90;;;17.30;1.00;;;;;;5027151;28;20029;-67
2023/09/20 06:17:30;;;;;;;9.05;2.90;;;17.50;1.00;;;;;;5014252;28;20036;-64
2023/09/20 06:19:57;;;;;;;7.15;2.88;;;17.70;1.00;;;;;;5024141;28;20526;-65
2023/09/20 06:22:23;;;;;;;9.65;3.25;;;17.70;1.00;;;;;;5024544;28;20033;-64
2023/09/20 06:24:48;;;;;;;10.88;2.95;;;17.60;1.00;;;;;;5027660;28;20483;-65
2023/09/20 06:27:14;;;;;;;9.77;3.08;;;17.70;1.00;;;;;;5032786;28;20039;-64
2023/09/20 06:29:40;;;;;;;8.07;3.13;;;17.90;1.00;;;;;;5032663;28;20044;-64
2023/09/20 06:32:05;;;;;;;6.90;3.22;;;18.10;1.00;;;;;;5034458;28;20060;-64
2023/09/20 06:34:31;;;;;;;7.13;3.10;;;18.50;1.00;;;;;;5027725;28;20032;-64
2023/09/20 06:36:56;;;;;;;8.13;3.03;;;18.90;1.00;;;;;;5029119;28;20025;-65
2023/09/20 06:39:22;;;;;;;7.07;3.22;;;18.90;1.00;;;;;;5032527;28;20099;-64
2023/09/20 06:41:49;;;;;;;6.40;2.55;;;19.20;1.00;;;;;;5031728;28;20029;-65
2023/09/20 06:44:14;;;;;;;6.80;2.65;;;20.20;99.90;;;;;;5033295;28;20036;-64
2023/09/20 06:46:42;;;;;;;4.28;2.60;;;20.40;65.80;;;;;;5024809;28;20484;-65
2023/09/20 06:49:08;;;;;;;8.80;2.38;;;20.40;16.20;;;;;;5030832;28;20026;-65
2023/09/20 06:51:34;;;;;;;7.88;2.33;;;20.20;1.00;;;;;;5025777;28;20022;-66
2023/09/20 06:54:00;;;;;;;4.10;2.05;;;20.10;91.30;;;;;;5027253;28;20037;-65
2023/09/20 06:56:26;;;;;;;9.05;3.20;;;20.10;99.90;;;;;;5026090;28;20041;-65
2023/09/20 06:58:53;;;;;;;8.20;2.50;;;20.50;10.10;;;;;;5028736;28;20063;-65
2023/09/20 07:01:19;;;;;;;9.52;2.60;;;21.00;99.90;;;;;;5022516;28;20428;-74
2023/09/20 07:03:45;;;;;;;6.55;2.42;;;21.30;42.20;;;;;;5024667;28;20048;-75
2023/09/20 07:06:11;;;;;;;4.95;2.22;;;21.20;99.90;;;;;;5020213;28;20038;-74
2023/09/20 07:08:37;;;;;;;8.05;2.50;;;21.30;99.90;;;;;;5026295;28;20053;-74
2023/09/20 07:11:04;;;;;;;5.78;2.60;;;21.00;10.80;;;;;;5023792;28;20139;-76
2023/09/20 07:13:32;;;;;;;7.43;2.80;;;21.30;99.90;;;;;;5027582;28;20025;-74
2023/09/20 07:15:59;;;;;;;7.68;2.35;;;21.00;1.00;;;;;;5026274;28;20029;-73
2023/09/20 07:18:25;;;;;;;7.63;2.83;;;20.70;99.90;;;;;;5013546;28;20088;-73
2023/09/20 07:20:54;;;;;;;4.80;2.42;;;20.70;99.90;;;;;;5024195;28;20041;-74
2023/09/20 07:23:20;;;;;;;6.22;2.30;;;20.70;99.90;;;;;;5015034;28;20037;-73
2023/09/20 07:25:49;;;;;;;11.45;3.13;;;20.40;1.00;;;;;;5019784;28;20048;-74
2023/09/20 07:28:16;;;;;;;8.75;2.72;;;20.50;1.00;;;;;;5024037;28;20032;-74
2023/09/20 07:30:45;;;;;;;5.97;2.33;;;20.70;99.90;;;;;;5021773;28;20050;-74
2023/09/20 07:33:12;;;;;;;8.65;3.00;;;20.70;99.90;;;;;;5034361;28;20030;-73
2023/09/20 07:35:47;;;;;;;6.57;2.28;;;21.10;99.90;;;;;;5031005;28;20034;-75
2023/09/20 07:38:19;;;;;;;5.95;2.35;;;21.30;99.90;;;;;;5018691;28;20112;-74
2023/09/20 07:40:49;;;;;;;7.25;2.28;;;21.00;1.00;;;;;;5031165;28;20033;-74
2023/09/20 07:43:15;;;;;;;11.27;2.53;;;21.30;1.00;;;;;;5031163;28;20039;-74
2023/09/20 07:45:41;;;;;;;6.03;2.55;;;22.00;1.00;;;;;;5034605;28;20099;-74
2023/09/20 07:48:12;;;;;;;3.88;2.05;;;22.20;1.00;;;;;;5017027;28;20037;-73
2023/09/20 07:50:40;;;;;;;6.13;2.40;;;22.00;1.00;;;;;;5027028;28;20113;-75
2023/09/20 07:53:10;;;;;;;5.90;2.65;;;22.00;1.00;;;;;;5027152;28;20022;-75
2023/09/20 07:55:36;;;;;;;3.90;2.28;;;21.90;88.80;;;;;;5022560;28;20479;-74
2023/09/20 07:58:01;;;;;;;5.50;2.60;;;21.00;99.90;;;;;;5027975;28;20028;-75
2023/09/20 08:00:27;;;;;;;3.70;2.30;;;21.00;1.00;;;;;;5021163;28;20037;-75
2023/09/20 08:02:54;;;;;;;6.82;2.83;;;21.30;99.90;;;;;;5020246;28;20121;-74
2023/09/20 08:05:22;;;;;;;6.15;2.42;;;21.50;1.00;;;;;;5019437;28;20507;-75
2023/09/20 08:07:47;;;;;;;4.32;2.13;;;21.60;99.90;;;;;;5029605;28;20028;-75
2023/09/20 08:10:13;;;;;;;3.97;2.35;;;21.60;1.00;;;;;;5023495;28;20104;-77
2023/09/20 08:12:39;;;;;;;7.18;2.17;;;21.80;99.90;;;;;;5033440;28;20030;-75
2023/09/20 08:15:05;;;;;;;4.68;2.33;;;22.00;99.90;;;;;;5017569;28;20083;-75
2023/09/20 08:20:20;;;;;;;6.80;2.22;;;22.30;99.90;;;;;;5025903;28;20038;-75
2023/09/20 09:01:38;;;;;;;4.85;1.80;;;22.30;81.60;;;;;;5024677;28;20574;-74
2023/09/20 09:04:08;;;;;;;5.65;1.83;;;22.10;99.90;;;;;;5020005;28;20036;-74
2023/09/20 09:06:34;;;;;;;4.20;1.60;;;22.00;77.70;;;;;;5022646;28;20592;-74
2023/09/20 09:09:01;;;;;;;4.30;2.00;;;21.80;1.00;;;;;;5028418;28;20029;-76
2023/09/20 09:11:28;;;;;;;4.35;1.88;;;21.80;1.00;;;;;;5023715;28;20029;-74
2023/09/20 09:13:59;;;;;;;5.43;1.85;;;22.20;99.90;;;;;;5027089;28;20104;-77
2023/09/20 09:16:26;;;;;;;3.97;1.60;;;22.70;99.90;;;;;;5017927;28;20026;-77
2023/09/20 09:18:54;;;;;;;4.15;2.20;;;22.90;1.00;;;;;;5015800;28;20045;-76
2023/09/20 09:21:20;;;;;;;5.35;1.77;;;23.10;99.90;;;;;;5025482;28;20029;-75
2023/09/20 09:23:46;;;;;;;4.10;2.00;;;23.10;89.90;;;;;;5026275;28;20034;-71
2023/09/20 09:26:13;;;;;;;3.15;2.20;;;23.10;99.90;;;;;;5022408;28;20476;-77
2023/09/20 09:28:42;;;;;;;5.57;1.88;;;23.10;99.90;;;;;;5024980;28;20037;-79
2023/09/20 09:31:08;;;;;;;3.22;1.85;;;23.00;99.90;;;;;;5016704;28;20030;-77
2023/09/20 09:33:36;;;;;;;5.40;2.40;;;23.10;1.00;;;;;;5027019;28;20025;-76
2023/09/20 09:36:04;;;;;;;4.45;1.67;;;22.50;99.90;;;;;;5028046;28;20033;-77
2023/09/20 09:38:32;;;;;;;3.78;2.22;;;22.50;99.90;;;;;;5014898;28;20522;-76
2023/09/20 09:40:58;;;;;;;5.43;1.95;;;22.50;94.00;;;;;;5023928;28;20039;-76
2023/09/20 09:43:26;;;;;;;5.72;2.30;;;22.50;99.90;;;;;;5029094;28;20108;-77
2023/09/20 09:45:54;;;;;;;4.32;2.20;;;22.80;99.90;;;;;;5029153;28;20036;-76
2023/09/20 09:48:22;;;;;;;6.80;1.80;;;22.80;77.60;;;;;;5027427;28;20033;-75
2023/09/20 09:50:49;;;;;;;2.85;2.10;;;22.60;99.90;;;;;;5023585;28;20116;-75
2023/09/20 09:53:15;;;;;;;4.97;1.83;;;22.60;1.00;;;;;;5032585;28;20036;-76
2023/09/20 09:55:41;;;;;;;5.60;2.40;;;22.50;1.00;;;;;;5025692;28;20045;-78
2023/09/20 09:58:09;;;;;;;6.18;2.28;;;22.30;1.00;;;;;;5023938;28;20035;-77
2023/09/20 10:00:36;;;;;;;5.18;1.92;;;22.70;99.90;;;;;;5027483;28;20471;-76
2023/09/20 10:03:29;;;;;;;4.85;1.80;;;22.50;99.90;;;;;;5021775;28;20030;-79
2023/09/20 10:06:07;;;;;;;6.10;1.93;;;22.30;99.90;;;;;;5027829;28;20442;-75
2023/09/20 10:08:37;;;;;;;6.47;1.90;;;22.40;99.90;;;;;;5016682;28;20327;-74
2023/09/20 10:11:05;;;;;;;4.82;1.80;;;22.70;99.90;;;;;;5017015;28;20037;-75
2023/09/20 10:13:34;;;;;;;4.75;1.52;;;23.40;1.00;;;;;;5027001;28;20026;-74
2023/09/20 10:16:01;;;;;;;4.88;1.83;;;22.80;1.00;;;;;;5026486;28;20129;-75
2023/09/20 10:18:31;;;;;;;7.25;1.55;;;22.50;99.90;;;;;;5027919;28;20483;-74
2023/09/20 10:21:04;;;;;;;3.95;1.23;;;22.50;99.90;;;;;;5026382;28;20514;-74
2023/09/20 10:23:35;;;;;;;6.00;1.75;;;22.20;99.90;;;;;;5028134;28;20054;-74
2023/09/20 10:26:00;;;;;;;2.95;1.50;;;22.00;99.90;;;;;;5033073;28;20399;-74
2023/09/20 10:28:34;;;;;;;2.70;1.50;;;21.90;1.00;;;;;;5028166;28;20025;-75
2023/09/20 10:31:01;;;;;;;4.97;1.73;;;21.80;99.90;;;;;;5024088;28;20032;-74
2023/09/20 10:33:48;;;;;;;5.88;1.70;;;21.80;1.00;;;;;;5030830;28;20017;-74
2023/09/20 10:36:21;;;;;;;4.03;1.45;;;22.10;99.90;;;;;;5032274;28;20030;-74
2023/09/20 10:38:47;;;;;;;;;;;22.10;99.90;;;;;;5026771;28;20041;-74
2023/09/20 10:41:14;;;;;;;4.93;1.60;;;22.30;1.00;;;;;;5015984;28;19916;-75
2023/09/20 10:43:46;;;;;;;5.35;1.38;;;22.40;1.00;;;;;;5026870;28;20045;-75
2023/09/20 10:46:17;;;;;;;4.80;1.88;;;22.50;99.90;;;;;;5018888;28;20026;-74
2023/09/20 10:48:48;;;;;;;2.58;1.55;;;22.70;99.90;;;;;;5023841;28;20455;-75
2023/09/20 10:51:52;;;;;;;4.63;1.95;;;22.60;28.30;;;;;;5013613;28;20028;-74
2023/09/20 10:54:20;;;;;;;;;;;22.40;99.90;;;;;;5025383;28;20033;-74
2023/09/20 10:59:30;;;;;;;6.03;1.75;;;22.50;1.00;;;;;;5088419;27;20402;-75
2023/09/20 11:02:05;;;;;;;4.85;1.42;;;22.50;43.00;;;;;;5080913;28;20517;-74
2023/09/20 11:04:31;;;;;;;3.10;1.52;;;22.10;74.20;;;;;;5083692;28;20055;-74
2023/09/20 11:06:59;;;;;;;4.10;1.70;;;22.00;99.90;;;;;;5089452;28;21837;-75
2023/09/20 11:09:31;;;;;;;3.00;1.80;;;21.70;1.00;;;;;;5088901;28;20108;-74
2023/09/20 11:12:04;;;;;;;4.13;1.95;;;21.90;99.90;;;;;;5081729;28;20397;-75
2023/09/20 11:14:31;;;;;;;4.85;1.70;;;21.60;99.90;;;;;;5071069;28;20605;-75
2023/09/20 11:16:57;;;;;;;5.18;1.58;;;21.70;1.00;;;;;;5071613;28;20032;-73
2023/09/20 11:19:22;;;;;;;4.60;1.60;;;21.80;9.40;;;;;;5077951;28;20029;-75
2023/09/20 11:21:48;;;;;;;4.35;1.65;;;21.90;99.90;;;;;;5077176;28;20043;-75
2023/09/20 11:24:15;;;;;;;2.47;1.60;;;22.10;1.00;;;;;;5084180;28;20142;-75
2023/09/20 11:26:43;;;;;;;6.18;1.55;;;22.20;99.90;;;;;;5084457;28;20060;-76
2023/09/20 11:29:10;;;;;;;4.55;1.58;;;22.10;68.70;;;;;;5079597;28;21169;-74
2023/09/20 11:31:37;;;;;;;2.55;1.48;;;22.10;99.90;;;;;;5071273;28;20374;-73
2023/09/20 11:34:04;;;;;;;3.33;1.50;;;21.90;99.90;;;;;;5074224;28;20040;-75
2023/09/20 11:36:37;;;;;;;3.78;1.70;;;22.00;1.00;;;;;;5077994;28;20055;-75
2023/09/20 11:39:05;;;;;;;3.53;1.85;;;21.90;1.00;;;;;;5075682;28;20044;-74
2023/09/20 11:41:32;;;;;;;3.58;1.65;;;22.00;58.40;;;;;;5077692;28;20033;-74
2023/09/20 11:43:58;;;;;;;3.00;1.63;;;22.10;1.00;;;;;;5073784;28;20032;-74
2023/09/20 11:46:28;;;;;;;2.88;1.73;;;22.30;1.00;;;;;;5080338;28;20035;-75
2023/09/20 11:48:59;;;;;;;4.72;1.90;;;22.40;7.10;;;;;;5075202;28;20035;-73
2023/09/20 11:51:25;;;;;;;3.83;2.10;;;22.40;1.00;;;;;;5074956;28;20036;-74
2023/09/20 11:53:52;;;;;;;3.60;1.90;;;22.40;99.90;;;;;;5073145;28;20482;-74
2023/09/20 11:56:29;;;;;;;2.88;1.90;;;22.10;1.00;;;;;;5071117;28;20039;-74
2023/09/20 11:58:59;;;;;;;4.15;1.77;;;22.00;99.90;;;;;;5080416;28;20040;-74
2023/09/20 12:01:29;;;;;;;4.75;1.85;;;22.00;99.90;;;;;;5080110;28;20496;-74
2023/09/20 12:03:55;;;;;;;3.92;1.80;;;22.20;1.00;;;;;;5073885;28;20021;-74
2023/09/20 12:06:21;;;;;;;4.63;1.50;;;22.30;99.90;;;;;;5083337;28;20051;-74
2023/09/20 12:08:48;;;;;;;2.70;1.50;;;22.30;1.00;;;;;;5074138;28;20024;-74
2023/09/20 12:11:14;;;;;;;3.95;1.63;;;22.40;53.80;;;;;;5057327;28;20118;-74
2023/09/20 12:13:42;;;;;;;3.17;2.08;;;22.40;1.20;;;;;;5062145;28;20037;-74
2023/09/20 12:16:08;;;;;;;4.78;1.90;;;22.60;99.90;;;;;;5051997;28;20052;-74
2023/09/20 12:18:36;;;;;;;3.05;1.67;;;22.40;1.00;;;;;;5052962;28;20052;-74
2023/09/20 12:21:02;;;;;;;4.32;1.90;;;22.70;99.90;;;;;;5063021;28;20474;-74
2023/09/20 12:23:29;;;;;;;3.67;1.65;;;22.80;1.00;;;;;;5062775;28;20089;-74
2023/09/20 12:25:55;;;;;;;3.30;1.80;;;22.70;99.90;;;;;;5058815;28;20924;-74
2023/09/20 12:28:20;;;;;;;3.50;1.50;;;22.80;1.00;;;;;;5060967;28;20124;-74
2023/09/20 12:30:46;;;;;;;2.85;1.63;;;22.80;1.00;;;;;;5067280;28;20024;-74
2023/09/20 12:33:12;;;;;;;3.58;1.70;;;22.80;1.00;;;;;;5061575;28;20040;-74
2023/09/20 12:35:40;;;;;;;4.03;1.63;;;22.90;99.90;;;;;;5063029;28;20047;-73
2023/09/20 12:38:07;;;;;;;4.90;1.70;;;23.00;99.90;;;;;;5066350;28;20116;-74
2023/09/20 12:40:32;;;;;;;6.22;2.10;;;23.10;15.20;;;;;;5063127;28;20584;-74
2023/09/20 12:42:59;;;;;;;4.63;1.63;;;23.30;6.40;;;;;;5072084;28;20085;-74
2023/09/20 12:45:25;;;;;;;3.50;1.60;;;23.50;1.00;;;;;;5057750;28;20293;-74
2023/09/20 12:47:50;;;;;;;1.77;1.35;;;23.50;99.90;;;;;;5062895;28;20029;-74
2023/09/20 12:50:18;;;;;;;4.47;1.95;;;23.50;1.00;;;;;;5061489;28;20729;-74
2023/09/20 12:52:47;;;;;;;7.00;2.00;;;23.60;99.90;;;;;;5054600;28;20036;-74
2023/09/20 12:55:13;;;;;;;3.85;1.65;;;23.60;99.90;;;;;;5056953;28;20066;-74
2023/09/20 12:57:40;;;;;;;4.03;1.80;;;23.60;99.90;;;;;;5059739;28;20043;-74
2023/09/20 13:00:08;;;;;;;3.08;1.58;;;23.40;1.00;;;;;;5060200;28;20035;-74
2023/09/20 13:02:34;;;;;;;3.50;1.70;;;23.40;99.90;;;;;;5060371;28;20031;-74
2023/09/20 13:04:59;;;;;;;3.70;2.42;;;23.10;99.90;;;;;;5063204;28;20410;-75
2023/09/20 13:07:26;;;;;;;3.72;1.75;;;23.00;99.90;;;;;;5067767;28;20041;-73
2023/09/20 13:09:54;;;;;;;9.18;1.67;;;22.80;1.00;;;;;;5061134;28;20080;-75
2023/09/20 13:12:20;;;;;;;5.82;1.67;;;22.70;1.00;;;;;;5067096;28;20041;-75
2023/09/20 13:14:46;;;;;;;4.10;1.90;;;22.80;11.20;;;;;;5056936;28;20379;-75
2023/09/20 13:17:12;;;;;;;3.83;1.83;;;22.90;1.00;;;;;;5061557;28;20032;-75
2023/09/20 13:19:38;;;;;;;3.30;1.70;;;23.30;1.00;;;;;;5058657;28;20032;-75
2023/09/20 13:22:05;;;;;;;4.15;1.52;;;23.60;99.90;;;;;;5065581;28;20028;-75
2023/09/20 13:24:33;;;;;;;2.67;1.48;;;23.50;99.90;;;;;;5061847;28;20028;-76
2023/09/20 13:26:59;;;;;;;7.00;1.67;;;23.40;94.60;;;;;;5065773;28;20119;-74
2023/09/20 13:29:27;;;;;;;3.70;1.73;;;23.40;14.10;;;;;;5060926;28;20037;-75
2023/09/20 13:31:53;;;;;;;2.58;1.52;;;23.10;96.90;;;;;;5069374;28;20067;-74
2023/09/20 13:34:20;;;;;;;3.25;1.77;;;23.40;99.90;;;;;;5071646;28;20059;-74